sensor_id;sensor_type;location;lat;lon;timestamp;temperature;humidity
11963;DHT22;62678;52.130;5.584;2022-11-20T00:01:23;-2.10;99.90
11963;DHT22;62678;52.130;5.584;2022-11-20T00:03:51;-2.20;99.90
11963;DHT22;62678;52.130;5.584;2022-11-20T00:06:20;-2.20;99.90
11963;DHT22;62678;52.130;5.584;2022-11-20T00:08:48;-2.10;99.90
11963;DHT22;62678;52.130;5.584;2022-11-20T00:11:16;-2.10;99.90
11963;DHT22;62678;52.130;5.584;2022-11-20T00:13:43;-2.10;99.90
11963;DHT22;62678;52.130;5.584;2022-11-20T00:16:12;-2.20;99.90
11963;DHT22;62678;52.130;5.584;2022-11-20T00:18:40;-2.10;99.90
11963;DHT22;62678;52.130;5.584;2022-11-20T00:21:11;-2.10;99.90
11963;DHT22;62678;52.130;5.584;2022-11-20T00:23:41;-2.10;99.90
11963;DHT22;62678;52.130;5.584;2022-11-20T00:26:10;-2.10;99.90
11963;DHT22;62678;52.130;5.584;2022-11-20T00:28:37;-2.20;99.90
11963;DHT22;62678;52.130;5.584;2022-11-20T00:31:06;-2.20;99.90
11963;DHT22;62678;52.130;5.584;2022-11-20T00:33:33;-2.20;99.90
11963;DHT22;62678;52.130;5.584;2022-11-20T00:36:01;-2.20;99.90
11963;DHT22;62678;52.130;5.584;2022-11-20T00:38:29;-2.20;99.90
11963;DHT22;62678;52.130;5.584;2022-11-20T00:40:58;-2.30;99.90
11963;DHT22;62678;52.130;5.584;2022-11-20T00:43:25;-2.30;99.90
11963;DHT22;62678;52.130;5.584;2022-11-20T00:45:56;-2.30;99.90
11963;DHT22;62678;52.130;5.584;2022-11-20T00:48:23;-2.20;99.90
11963;DHT22;62678;52.130;5.584;2022-11-20T00:50:51;-2.20;99.90
11963;DHT22;62678;52.130;5.584;2022-11-20T00:53:18;-2.20;99.90
11963;DHT22;62678;52.130;5.584;2022-11-20T00:55:53;-2.30;99.90
11963;DHT22;62678;52.130;5.584;2022-11-20T00:58:22;-2.40;99.90
11963;DHT22;62678;52.130;5.584;2022-11-20T01:00:50;-2.50;99.90
11963;DHT22;62678;52.130;5.584;2022-11-20T01:03:17;-2.40;99.90
11963;DHT22;62678;52.130;5.584;2022-11-20T01:05:44;-2.40;99.90
11963;DHT22;62678;52.130;5.584;2022-11-20T01:08:11;-2.50;99.90
11963;DHT22;62678;52.130;5.584;2022-11-20T01:10:37;-2.50;99.90
11963;DHT22;62678;52.130;5.584;2022-11-20T01:13:04;-2.60;99.90
11963;DHT22;62678;52.130;5.584;2022-11-20T01:15:50;-2.60;99.90
11963;DHT22;62678;52.130;5.584;2022-11-20T01:18:17;-2.60;99.90
11963;DHT22;62678;52.130;5.584;2022-11-20T01:20:43;-2.60;99.90
11963;DHT22;62678;52.130;5.584;2022-11-20T01:23:10;-2.60;99.90
11963;DHT22;62678;52.130;5.584;2022-11-20T01:25:37;-2.50;99.90
11963;DHT22;62678;52.130;5.584;2022-11-20T01:28:03;-2.50;99.90
11963;DHT22;62678;52.130;5.584;2022-11-20T01:30:30;-2.50;99.90
11963;DHT22;62678;52.130;5.584;2022-11-20T01:32:58;-2.50;99.90
11963;DHT22;62678;52.130;5.584;2022-11-20T01:35:25;-2.50;99.90
11963;DHT22;62678;52.130;5.584;2022-11-20T01:37:52;-2.60;99.90
11963;DHT22;62678;52.130;5.584;2022-11-20T01:40:18;-2.60;99.90
11963;DHT22;62678;52.130;5.584;2022-11-20T01:43:11;-2.50;99.90
11963;DHT22;62678;52.130;5.584;2022-11-20T01:46:01;-2.50;99.90
11963;DHT22;62678;52.130;5.584;2022-11-20T01:48:33;-2.50;99.90
11963;DHT22;62678;52.130;5.584;2022-11-20T01:51:02;-2.60;99.90
11963;DHT22;62678;52.130;5.584;2022-11-20T01:53:32;-2.60;99.90
11963;DHT22;62678;52.130;5.584;2022-11-20T01:56:01;-2.60;99.90
11963;DHT22;62678;52.130;5.584;2022-11-20T01:58:32;-2.60;99.90
11963;DHT22;62678;52.130;5.584;2022-11-20T02:01:01;-2.60;99.90
11963;DHT22;62678;52.130;5.584;2022-11-20T02:03:29;-2.60;99.90
11963;DHT22;62678;52.130;5.584;2022-11-20T02:06:00;-2.60;99.90
11963;DHT22;62678;52.130;5.584;2022-11-20T02:08:29;-2.70;99.90
11963;DHT22;62678;52.130;5.584;2022-11-20T02:10:56;-2.70;99.90
11963;DHT22;62678;52.130;5.584;2022-11-20T02:13:23;-2.70;99.90
11963;DHT22;62678;52.130;5.584;2022-11-20T02:16:11;-2.70;99.90
11963;DHT22;62678;52.130;5.584;2022-11-20T02:18:39;-2.80;99.90
11963;DHT22;62678;52.130;5.584;2022-11-20T02:21:09;-2.90;99.90
11963;DHT22;62678;52.130;5.584;2022-11-20T02:23:54;-2.90;99.90
11963;DHT22;62678;52.130;5.584;2022-11-20T02:26:24;-2.90;99.90
11963;DHT22;62678;52.130;5.584;2022-11-20T02:28:53;-2.90;99.90
11963;DHT22;62678;52.130;5.584;2022-11-20T02:31:20;-3.00;99.90
11963;DHT22;62678;52.130;5.584;2022-11-20T02:33:47;-3.00;99.90
11963;DHT22;62678;52.130;5.584;2022-11-20T02:36:15;-3.00;99.90
11963;DHT22;62678;52.130;5.584;2022-11-20T02:38:43;-3.00;99.90
11963;DHT22;62678;52.130;5.584;2022-11-20T02:41:11;-2.90;99.90
11963;DHT22;62678;52.130;5.584;2022-11-20T02:43:38;-2.90;99.90
11963;DHT22;62678;52.130;5.584;2022-11-20T02:46:07;-3.00;99.90
11963;DHT22;62678;52.130;5.584;2022-11-20T02:48:33;-3.00;99.90
11963;DHT22;62678;52.130;5.584;2022-11-20T02:51:01;-3.10;99.90
11963;DHT22;62678;52.130;5.584;2022-11-20T02:53:27;-3.10;99.90
11963;DHT22;62678;52.130;5.584;2022-11-20T02:55:54;-3.10;99.90
11963;DHT22;62678;52.130;5.584;2022-11-20T02:58:23;-3.20;99.90
11963;DHT22;62678;52.130;5.584;2022-11-20T03:00:50;-3.10;99.90
11963;DHT22;62678;52.130;5.584;2022-11-20T03:03:16;-3.10;99.90
11963;DHT22;62678;52.130;5.584;2022-11-20T03:05:43;-3.10;99.90
11963;DHT22;62678;52.130;5.584;2022-11-20T03:08:10;-3.20;99.90
11963;DHT22;62678;52.130;5.584;2022-11-20T03:10:36;-3.20;99.90
11963;DHT22;62678;52.130;5.584;2022-11-20T03:13:03;-3.20;99.90
11963;DHT22;62678;52.130;5.584;2022-11-20T03:15:32;-3.20;99.90
11963;DHT22;62678;52.130;5.584;2022-11-20T03:17:58;-3.30;99.90
11963;DHT22;62678;52.130;5.584;2022-11-20T03:20:25;-3.30;99.90
11963;DHT22;62678;52.130;5.584;2022-11-20T03:22:53;-3.30;99.90
11963;DHT22;62678;52.130;5.584;2022-11-20T03:25:20;-3.20;99.90
11963;DHT22;62678;52.130;5.584;2022-11-20T03:27:47;-3.20;99.90
11963;DHT22;62678;52.130;5.584;2022-11-20T03:30:14;-3.30;99.90
11963;DHT22;62678;52.130;5.584;2022-11-20T03:32:43;-3.30;99.90
11963;DHT22;62678;52.130;5.584;2022-11-20T03:35:09;-3.30;99.90
11963;DHT22;62678;52.130;5.584;2022-11-20T03:37:36;-3.30;99.90
11963;DHT22;62678;52.130;5.584;2022-11-20T03:40:04;-3.30;99.90
11963;DHT22;62678;52.130;5.584;2022-11-20T03:42:31;-3.30;99.90
11963;DHT22;62678;52.130;5.584;2022-11-20T03:45:13;-3.30;99.90
11963;DHT22;62678;52.130;5.584;2022-11-20T03:47:40;-3.30;99.90
11963;DHT22;62678;52.130;5.584;2022-11-20T03:50:12;-3.30;99.90
11963;DHT22;62678;52.130;5.584;2022-11-20T03:52:39;-3.10;99.90
11963;DHT22;62678;52.130;5.584;2022-11-20T03:55:06;-3.10;99.90
11963;DHT22;62678;52.130;5.584;2022-11-20T03:57:33;-3.10;99.90
11963;DHT22;62678;52.130;5.584;2022-11-20T04:00:00;-3.20;99.90
11963;DHT22;62678;52.130;5.584;2022-11-20T04:02:27;-3.20;99.90
11963;DHT22;62678;52.130;5.584;2022-11-20T04:04:54;-3.30;99.90
11963;DHT22;62678;52.130;5.584;2022-11-20T04:07:22;-3.30;99.90
11963;DHT22;62678;52.130;5.584;2022-11-20T04:09:49;-3.40;99.90
11963;DHT22;62678;52.130;5.584;2022-11-20T04:12:15;-3.40;99.90
11963;DHT22;62678;52.130;5.584;2022-11-20T04:14:42;-3.50;99.90
11963;DHT22;62678;52.130;5.584;2022-11-20T04:17:09;-3.50;99.90
11963;DHT22;62678;52.130;5.584;2022-11-20T04:19:35;-3.40;99.90
11963;DHT22;62678;52.130;5.584;2022-11-20T04:22:02;-3.50;99.90
11963;DHT22;62678;52.130;5.584;2022-11-20T04:24:30;-3.50;99.90
11963;DHT22;62678;52.130;5.584;2022-11-20T04:26:57;-3.50;99.90
11963;DHT22;62678;52.130;5.584;2022-11-20T04:29:24;-3.50;99.90
11963;DHT22;62678;52.130;5.584;2022-11-20T04:31:50;-3.50;99.90
11963;DHT22;62678;52.130;5.584;2022-11-20T04:34:17;-3.60;99.90
11963;DHT22;62678;52.130;5.584;2022-11-20T04:36:44;-3.60;99.90
11963;DHT22;62678;52.130;5.584;2022-11-20T04:39:13;-3.60;99.90
11963;DHT22;62678;52.130;5.584;2022-11-20T04:41:42;-3.60;99.90
11963;DHT22;62678;52.130;5.584;2022-11-20T04:44:08;-3.50;99.90
11963;DHT22;62678;52.130;5.584;2022-11-20T04:46:38;-3.60;99.90
11963;DHT22;62678;52.130;5.584;2022-11-20T04:49:06;-3.60;99.90
11963;DHT22;62678;52.130;5.584;2022-11-20T04:51:33;-3.60;99.90
11963;DHT22;62678;52.130;5.584;2022-11-20T04:54:00;-3.60;99.90
11963;DHT22;62678;52.130;5.584;2022-11-20T04:56:27;-3.60;99.90
11963;DHT22;62678;52.130;5.584;2022-11-20T04:58:55;-3.60;99.90
11963;DHT22;62678;52.130;5.584;2022-11-20T05:01:26;-3.60;99.90
11963;DHT22;62678;52.130;5.584;2022-11-20T05:03:52;-3.60;99.90
11963;DHT22;62678;52.130;5.584;2022-11-20T05:06:20;-3.60;99.90
11963;DHT22;62678;52.130;5.584;2022-11-20T05:08:48;-3.60;99.90
11963;DHT22;62678;52.130;5.584;2022-11-20T05:11:16;-3.60;99.90
11963;DHT22;62678;52.130;5.584;2022-11-20T05:13:43;-3.60;99.90
11963;DHT22;62678;52.130;5.584;2022-11-20T05:16:12;-3.70;99.90
11963;DHT22;62678;52.130;5.584;2022-11-20T05:18:40;-3.70;99.90
11963;DHT22;62678;52.130;5.584;2022-11-20T05:21:08;-3.60;99.90
11963;DHT22;62678;52.130;5.584;2022-11-20T05:23:36;-3.70;99.90
11963;DHT22;62678;52.130;5.584;2022-11-20T05:26:03;-3.70;99.90
11963;DHT22;62678;52.130;5.584;2022-11-20T05:28:30;-3.80;99.90
11963;DHT22;62678;52.130;5.584;2022-11-20T05:31:04;-3.80;99.90
11963;DHT22;62678;52.130;5.584;2022-11-20T05:33:33;-3.80;99.90
11963;DHT22;62678;52.130;5.584;2022-11-20T05:36:00;-3.80;99.90
11963;DHT22;62678;52.130;5.584;2022-11-20T05:38:27;-3.80;99.90
11963;DHT22;62678;52.130;5.584;2022-11-20T05:40:54;-3.80;99.90
11963;DHT22;62678;52.130;5.584;2022-11-20T05:43:20;-3.80;99.90
11963;DHT22;62678;52.130;5.584;2022-11-20T05:45:52;-3.80;99.90
11963;DHT22;62678;52.130;5.584;2022-11-20T05:48:20;-3.80;99.90
11963;DHT22;62678;52.130;5.584;2022-11-20T05:50:48;-3.90;99.90
11963;DHT22;62678;52.130;5.584;2022-11-20T05:53:15;-3.90;99.90
11963;DHT22;62678;52.130;5.584;2022-11-20T05:55:42;-3.80;99.90
11963;DHT22;62678;52.130;5.584;2022-11-20T05:58:09;-3.80;99.90
11963;DHT22;62678;52.130;5.584;2022-11-20T06:00:35;-3.90;99.90
11963;DHT22;62678;52.130;5.584;2022-11-20T06:03:03;-4.00;99.90
11963;DHT22;62678;52.130;5.584;2022-11-20T06:05:29;-3.90;99.90
11963;DHT22;62678;52.130;5.584;2022-11-20T06:07:58;-3.90;99.90
11963;DHT22;62678;52.130;5.584;2022-11-20T06:10:26;-3.90;99.90
11963;DHT22;62678;52.130;5.584;2022-11-20T06:12:53;-3.90;99.90
11963;DHT22;62678;52.130;5.584;2022-11-20T06:15:20;-4.00;99.90
11963;DHT22;62678;52.130;5.584;2022-11-20T06:17:46;-4.00;99.90
11963;DHT22;62678;52.130;5.584;2022-11-20T06:20:13;-4.00;99.90
11963;DHT22;62678;52.130;5.584;2022-11-20T06:22:40;-4.00;99.90
11963;DHT22;62678;52.130;5.584;2022-11-20T06:25:08;-4.00;99.90
11963;DHT22;62678;52.130;5.584;2022-11-20T06:27:35;-3.90;99.90
11963;DHT22;62678;52.130;5.584;2022-11-20T06:30:04;-3.90;99.90
11963;DHT22;62678;52.130;5.584;2022-11-20T06:32:33;-4.00;99.90
11963;DHT22;62678;52.130;5.584;2022-11-20T06:34:59;-4.00;99.90
11963;DHT22;62678;52.130;5.584;2022-11-20T06:37:26;-4.00;99.90
11963;DHT22;62678;52.130;5.584;2022-11-20T06:39:53;-4.00;99.90
11963;DHT22;62678;52.130;5.584;2022-11-20T06:42:21;-4.00;99.90
11963;DHT22;62678;52.130;5.584;2022-11-20T06:44:48;-4.00;99.90
11963;DHT22;62678;52.130;5.584;2022-11-20T06:47:14;-4.00;99.90
11963;DHT22;62678;52.130;5.584;2022-11-20T06:49:41;-4.00;99.90
11963;DHT22;62678;52.130;5.584;2022-11-20T06:52:08;-4.00;99.90
11963;DHT22;62678;52.130;5.584;2022-11-20T06:54:35;-4.00;99.90
11963;DHT22;62678;52.130;5.584;2022-11-20T06:57:01;-4.00;99.90
11963;DHT22;62678;52.130;5.584;2022-11-20T06:59:29;-4.00;99.90
11963;DHT22;62678;52.130;5.584;2022-11-20T07:01:56;-4.00;99.90
11963;DHT22;62678;52.130;5.584;2022-11-20T07:04:23;-3.90;99.90
11963;DHT22;62678;52.130;5.584;2022-11-20T07:06:50;-3.80;99.90
11963;DHT22;62678;52.130;5.584;2022-11-20T07:09:17;-3.90;99.90
11963;DHT22;62678;52.130;5.584;2022-11-20T07:11:43;-3.90;99.90
11963;DHT22;62678;52.130;5.584;2022-11-20T07:14:10;-3.90;99.90
11963;DHT22;62678;52.130;5.584;2022-11-20T07:16:38;-3.90;99.90
11963;DHT22;62678;52.130;5.584;2022-11-20T07:19:05;-3.90;99.90
11963;DHT22;62678;52.130;5.584;2022-11-20T07:21:32;-4.00;99.90
11963;DHT22;62678;52.130;5.584;2022-11-20T07:23:58;-4.10;99.90
11963;DHT22;62678;52.130;5.584;2022-11-20T07:26:25;-4.00;99.90
11963;DHT22;62678;52.130;5.584;2022-11-20T07:28:52;-4.00;99.90
11963;DHT22;62678;52.130;5.584;2022-11-20T07:31:19;-4.00;99.90
11963;DHT22;62678;52.130;5.584;2022-11-20T07:33:47;-3.90;99.90
11963;DHT22;62678;52.130;5.584;2022-11-20T07:36:13;-3.90;99.90
11963;DHT22;62678;52.130;5.584;2022-11-20T07:38:40;-3.80;99.90
11963;DHT22;62678;52.130;5.584;2022-11-20T07:41:07;-3.80;99.90
11963;DHT22;62678;52.130;5.584;2022-11-20T07:43:34;-3.70;99.90
11963;DHT22;62678;52.130;5.584;2022-11-20T07:46:01;-3.70;99.90
11963;DHT22;62678;52.130;5.584;2022-11-20T07:48:29;-3.70;99.90
11963;DHT22;62678;52.130;5.584;2022-11-20T07:50:57;-3.50;99.90
11963;DHT22;62678;52.130;5.584;2022-11-20T07:53:24;-3.50;99.90
11963;DHT22;62678;52.130;5.584;2022-11-20T07:55:51;-3.40;99.90
11963;DHT22;62678;52.130;5.584;2022-11-20T07:58:18;-3.40;99.90
11963;DHT22;62678;52.130;5.584;2022-11-20T08:00:45;-3.30;99.90
11963;DHT22;62678;52.130;5.584;2022-11-20T08:03:12;-3.20;99.90
11963;DHT22;62678;52.130;5.584;2022-11-20T08:05:39;-3.10;99.90
11963;DHT22;62678;52.130;5.584;2022-11-20T08:08:07;-3.10;99.90
11963;DHT22;62678;52.130;5.584;2022-11-20T08:10:34;-3.00;99.90
11963;DHT22;62678;52.130;5.584;2022-11-20T08:13:00;-2.90;99.90
11963;DHT22;62678;52.130;5.584;2022-11-20T08:15:48;-2.80;99.90
11963;DHT22;62678;52.130;5.584;2022-11-20T08:18:16;-2.80;99.90
11963;DHT22;62678;52.130;5.584;2022-11-20T08:20:43;-2.70;99.90
11963;DHT22;62678;52.130;5.584;2022-11-20T08:23:11;-2.70;99.90
11963;DHT22;62678;52.130;5.584;2022-11-20T08:25:38;-2.50;99.90
11963;DHT22;62678;52.130;5.584;2022-11-20T08:28:07;-2.30;99.90
11963;DHT22;62678;52.130;5.584;2022-11-20T08:30:35;-2.20;99.90
11963;DHT22;62678;52.130;5.584;2022-11-20T08:33:03;-2.10;99.90
11963;DHT22;62678;52.130;5.584;2022-11-20T08:35:33;-1.90;99.90
11963;DHT22;62678;52.130;5.584;2022-11-20T08:38:00;-1.90;99.90
11963;DHT22;62678;52.130;5.584;2022-11-20T08:40:28;-1.80;99.90
11963;DHT22;62678;52.130;5.584;2022-11-20T08:42:55;-1.70;99.90
11963;DHT22;62678;52.130;5.584;2022-11-20T08:45:22;-1.50;99.90
11963;DHT22;62678;52.130;5.584;2022-11-20T08:47:49;-1.40;99.90
11963;DHT22;62678;52.130;5.584;2022-11-20T08:50:16;-1.40;99.90
11963;DHT22;62678;52.130;5.584;2022-11-20T08:52:44;-1.50;99.90
11963;DHT22;62678;52.130;5.584;2022-11-20T08:55:11;-1.30;99.90
11963;DHT22;62678;52.130;5.584;2022-11-20T08:57:39;-1.30;99.90
11963;DHT22;62678;52.130;5.584;2022-11-20T09:00:09;-1.20;99.90
11963;DHT22;62678;52.130;5.584;2022-11-20T09:02:36;-1.20;99.90
11963;DHT22;62678;52.130;5.584;2022-11-20T09:05:04;-1.00;99.90
11963;DHT22;62678;52.130;5.584;2022-11-20T09:07:31;-0.80;99.90
11963;DHT22;62678;52.130;5.584;2022-11-20T09:09:57;-0.80;99.90
11963;DHT22;62678;52.130;5.584;2022-11-20T09:12:25;-0.80;99.90
11963;DHT22;62678;52.130;5.584;2022-11-20T09:14:53;-0.70;99.90
11963;DHT22;62678;52.130;5.584;2022-11-20T09:17:19;-0.70;99.90
11963;DHT22;62678;52.130;5.584;2022-11-20T09:19:46;-0.60;99.90
11963;DHT22;62678;52.130;5.584;2022-11-20T09:22:13;-0.60;99.90
11963;DHT22;62678;52.130;5.584;2022-11-20T09:24:40;-0.50;99.90
11963;DHT22;62678;52.130;5.584;2022-11-20T09:27:08;-0.50;99.90
11963;DHT22;62678;52.130;5.584;2022-11-20T09:29:35;-0.50;99.90
11963;DHT22;62678;52.130;5.584;2022-11-20T09:32:03;-0.30;99.90
11963;DHT22;62678;52.130;5.584;2022-11-20T09:34:31;-0.30;99.90
11963;DHT22;62678;52.130;5.584;2022-11-20T09:36:58;-0.20;99.90
11963;DHT22;62678;52.130;5.584;2022-11-20T09:39:25;-0.20;99.90
11963;DHT22;62678;52.130;5.584;2022-11-20T09:42:03;-0.20;99.90
11963;DHT22;62678;52.130;5.584;2022-11-20T09:44:47;-0.10;99.90
11963;DHT22;62678;52.130;5.584;2022-11-20T09:47:26;0.00;99.90
11963;DHT22;62678;52.130;5.584;2022-11-20T09:50:03;0.10;99.90
11963;DHT22;62678;52.130;5.584;2022-11-20T09:52:40;0.20;99.90
11963;DHT22;62678;52.130;5.584;2022-11-20T09:55:09;0.40;99.90
11963;DHT22;62678;52.130;5.584;2022-11-20T09:57:39;0.60;99.90
11963;DHT22;62678;52.130;5.584;2022-11-20T10:00:11;0.70;99.90
11963;DHT22;62678;52.130;5.584;2022-11-20T10:02:44;0.70;99.90
11963;DHT22;62678;52.130;5.584;2022-11-20T10:05:17;0.80;99.90
11963;DHT22;62678;52.130;5.584;2022-11-20T10:07:48;0.80;99.90
11963;DHT22;62678;52.130;5.584;2022-11-20T10:10:29;1.00;99.90
11963;DHT22;62678;52.130;5.584;2022-11-20T10:13:09;1.00;99.90
11963;DHT22;62678;52.130;5.584;2022-11-20T10:15:49;1.10;99.90
11963;DHT22;62678;52.130;5.584;2022-11-20T10:18:34;1.20;99.90
11963;DHT22;62678;52.130;5.584;2022-11-20T10:21:10;1.30;99.90
11963;DHT22;62678;52.130;5.584;2022-11-20T10:23:50;1.20;99.90
11963;DHT22;62678;52.130;5.584;2022-11-20T10:26:23;1.20;99.90
11963;DHT22;62678;52.130;5.584;2022-11-20T10:29:07;1.40;99.90
11963;DHT22;62678;52.130;5.584;2022-11-20T10:31:36;1.50;99.90
11963;DHT22;62678;52.130;5.584;2022-11-20T10:34:12;1.60;99.90
11963;DHT22;62678;52.130;5.584;2022-11-20T10:36:44;1.70;99.90
11963;DHT22;62678;52.130;5.584;2022-11-20T10:39:16;2.00;99.90
11963;DHT22;62678;52.130;5.584;2022-11-20T10:41:46;1.90;99.90
11963;DHT22;62678;52.130;5.584;2022-11-20T10:44:17;1.90;99.90
11963;DHT22;62678;52.130;5.584;2022-11-20T10:47:13;2.00;99.90
11963;DHT22;62678;52.130;5.584;2022-11-20T10:49:42;1.90;99.90
11963;DHT22;62678;52.130;5.584;2022-11-20T10:52:15;2.00;99.90
11963;DHT22;62678;52.130;5.584;2022-11-20T10:54:49;2.10;99.90
11963;DHT22;62678;52.130;5.584;2022-11-20T10:57:27;2.20;99.90
11963;DHT22;62678;52.130;5.584;2022-11-20T11:00:02;2.50;99.90
11963;DHT22;62678;52.130;5.584;2022-11-20T11:02:34;2.50;99.90
11963;DHT22;62678;52.130;5.584;2022-11-20T11:05:26;2.80;99.90
11963;DHT22;62678;52.130;5.584;2022-11-20T11:07:56;2.80;99.90
11963;DHT22;62678;52.130;5.584;2022-11-20T11:10:28;3.10;99.90
11963;DHT22;62678;52.130;5.584;2022-11-20T11:12:58;3.30;99.90
11963;DHT22;62678;52.130;5.584;2022-11-20T11:15:28;3.30;99.90
11963;DHT22;62678;52.130;5.584;2022-11-20T11:17:56;3.20;99.90
11963;DHT22;62678;52.130;5.584;2022-11-20T11:20:25;3.10;99.90
11963;DHT22;62678;52.130;5.584;2022-11-20T11:22:53;3.20;99.90
11963;DHT22;62678;52.130;5.584;2022-11-20T11:25:24;3.30;99.90
11963;DHT22;62678;52.130;5.584;2022-11-20T11:27:52;3.40;99.90
11963;DHT22;62678;52.130;5.584;2022-11-20T11:30:22;3.50;99.90
11963;DHT22;62678;52.130;5.584;2022-11-20T11:32:49;3.50;99.90
11963;DHT22;62678;52.130;5.584;2022-11-20T11:35:25;3.50;99.90
11963;DHT22;62678;52.130;5.584;2022-11-20T11:38:00;3.60;99.90
11963;DHT22;62678;52.130;5.584;2022-11-20T11:40:29;3.70;99.90
11963;DHT22;62678;52.130;5.584;2022-11-20T11:42:59;3.60;99.90
11963;DHT22;62678;52.130;5.584;2022-11-20T11:45:26;3.60;99.90
11963;DHT22;62678;52.130;5.584;2022-11-20T11:47:54;3.60;99.90
11963;DHT22;62678;52.130;5.584;2022-11-20T11:50:25;3.90;99.90
11963;DHT22;62678;52.130;5.584;2022-11-20T11:52:58;4.00;99.90
11963;DHT22;62678;52.130;5.584;2022-11-20T11:55:32;4.00;99.90
11963;DHT22;62678;52.130;5.584;2022-11-20T11:58:09;3.90;99.90
11963;DHT22;62678;52.130;5.584;2022-11-20T12:00:40;4.00;99.90
11963;DHT22;62678;52.130;5.584;2022-11-20T12:03:13;3.80;99.90
11963;DHT22;62678;52.130;5.584;2022-11-20T12:05:43;3.70;99.90
11963;DHT22;62678;52.130;5.584;2022-11-20T12:08:16;3.70;99.90
11963;DHT22;62678;52.130;5.584;2022-11-20T12:10:49;3.60;99.90
11963;DHT22;62678;52.130;5.584;2022-11-20T12:13:34;3.60;99.90
11963;DHT22;62678;52.130;5.584;2022-11-20T12:16:04;3.70;99.90
11963;DHT22;62678;52.130;5.584;2022-11-20T12:18:31;3.80;99.90
11963;DHT22;62678;52.130;5.584;2022-11-20T12:21:07;3.60;99.90
11963;DHT22;62678;52.130;5.584;2022-11-20T12:23:47;3.70;99.90
11963;DHT22;62678;52.130;5.584;2022-11-20T12:26:37;3.70;99.90
11963;DHT22;62678;52.130;5.584;2022-11-20T12:29:09;4.00;99.90
11963;DHT22;62678;52.130;5.584;2022-11-20T12:31:55;3.80;99.90
11963;DHT22;62678;52.130;5.584;2022-11-20T12:34:47;3.80;99.90
11963;DHT22;62678;52.130;5.584;2022-11-20T12:37:30;3.80;99.90
11963;DHT22;62678;52.130;5.584;2022-11-20T12:40:05;3.80;99.90
11963;DHT22;62678;52.130;5.584;2022-11-20T12:42:46;3.90;99.90
11963;DHT22;62678;52.130;5.584;2022-11-20T12:45:46;3.70;99.90
11963;DHT22;62678;52.130;5.584;2022-11-20T12:48:52;3.60;99.90
11963;DHT22;62678;52.130;5.584;2022-11-20T12:51:36;3.60;99.90
11963;DHT22;62678;52.130;5.584;2022-11-20T12:54:26;3.50;99.90
11963;DHT22;62678;52.130;5.584;2022-11-20T12:57:00;3.60;99.90
11963;DHT22;62678;52.130;5.584;2022-11-20T12:59:42;3.60;99.90
11963;DHT22;62678;52.130;5.584;2022-11-20T13:02:20;3.70;99.90
11963;DHT22;62678;52.130;5.584;2022-11-20T13:05:01;3.70;99.90
11963;DHT22;62678;52.130;5.584;2022-11-20T13:07:33;3.70;99.90
11963;DHT22;62678;52.130;5.584;2022-11-20T13:10:04;3.60;99.90
11963;DHT22;62678;52.130;5.584;2022-11-20T13:12:35;3.50;99.90
11963;DHT22;62678;52.130;5.584;2022-11-20T13:15:08;3.70;99.90
11963;DHT22;62678;52.130;5.584;2022-11-20T13:17:44;3.70;99.90
11963;DHT22;62678;52.130;5.584;2022-11-20T13:20:15;3.60;99.90
11963;DHT22;62678;52.130;5.584;2022-11-20T13:22:44;3.70;99.90
11963;DHT22;62678;52.130;5.584;2022-11-20T13:25:23;3.60;99.90
11963;DHT22;62678;52.130;5.584;2022-11-20T13:27:50;3.70;99.90
11963;DHT22;62678;52.130;5.584;2022-11-20T13:30:19;3.60;99.90
11963;DHT22;62678;52.130;5.584;2022-11-20T13:32:51;3.60;99.90
11963;DHT22;62678;52.130;5.584;2022-11-20T13:35:28;3.70;99.90
11963;DHT22;62678;52.130;5.584;2022-11-20T13:38:06;3.70;99.90
11963;DHT22;62678;52.130;5.584;2022-11-20T13:40:36;3.70;99.90
11963;DHT22;62678;52.130;5.584;2022-11-20T13:43:16;3.70;99.90
11963;DHT22;62678;52.130;5.584;2022-11-20T13:45:55;3.60;99.90
11963;DHT22;62678;52.130;5.584;2022-11-20T13:48:24;3.70;99.90
11963;DHT22;62678;52.130;5.584;2022-11-20T13:51:00;3.80;99.90
11963;DHT22;62678;52.130;5.584;2022-11-20T13:53:42;3.90;99.90
11963;DHT22;62678;52.130;5.584;2022-11-20T13:56:19;3.70;99.90
11963;DHT22;62678;52.130;5.584;2022-11-20T13:58:59;3.70;99.90
11963;DHT22;62678;52.130;5.584;2022-11-20T14:01:29;3.50;99.90
11963;DHT22;62678;52.130;5.584;2022-11-20T14:03:59;3.70;99.90
11963;DHT22;62678;52.130;5.584;2022-11-20T14:06:27;3.60;99.90
11963;DHT22;62678;52.130;5.584;2022-11-20T14:08:55;3.70;99.90
11963;DHT22;62678;52.130;5.584;2022-11-20T14:11:25;3.80;99.90
11963;DHT22;62678;52.130;5.584;2022-11-20T14:13:58;3.80;99.90
11963;DHT22;62678;52.130;5.584;2022-11-20T14:16:28;3.80;99.90
11963;DHT22;62678;52.130;5.584;2022-11-20T14:18:57;3.50;99.90
11963;DHT22;62678;52.130;5.584;2022-11-20T14:21:26;3.50;99.90
11963;DHT22;62678;52.130;5.584;2022-11-20T14:24:02;3.50;99.90
11963;DHT22;62678;52.130;5.584;2022-11-20T14:26:30;3.50;99.90
11963;DHT22;62678;52.130;5.584;2022-11-20T14:28:57;3.40;99.90
11963;DHT22;62678;52.130;5.584;2022-11-20T14:31:26;3.60;99.90
11963;DHT22;62678;52.130;5.584;2022-11-20T14:33:54;3.60;99.90
11963;DHT22;62678;52.130;5.584;2022-11-20T14:36:24;3.70;99.90
11963;DHT22;62678;52.130;5.584;2022-11-20T14:38:51;3.80;99.90
11963;DHT22;62678;52.130;5.584;2022-11-20T14:41:20;3.80;99.90
11963;DHT22;62678;52.130;5.584;2022-11-20T14:43:51;3.90;99.90
11963;DHT22;62678;52.130;5.584;2022-11-20T14:46:19;3.70;99.90
11963;DHT22;62678;52.130;5.584;2022-11-20T14:48:49;3.80;99.90
11963;DHT22;62678;52.130;5.584;2022-11-20T14:51:27;3.90;99.90
11963;DHT22;62678;52.130;5.584;2022-11-20T14:53:54;3.90;99.90
11963;DHT22;62678;52.130;5.584;2022-11-20T14:56:23;3.90;99.90
11963;DHT22;62678;52.130;5.584;2022-11-20T14:58:58;3.70;99.90
11963;DHT22;62678;52.130;5.584;2022-11-20T15:01:30;3.70;99.90
11963;DHT22;62678;52.130;5.584;2022-11-20T15:04:02;3.80;99.90
11963;DHT22;62678;52.130;5.584;2022-11-20T15:06:31;3.80;99.90
11963;DHT22;62678;52.130;5.584;2022-11-20T15:08:58;3.80;99.90
11963;DHT22;62678;52.130;5.584;2022-11-20T15:11:29;3.70;99.90
11963;DHT22;62678;52.130;5.584;2022-11-20T15:13:58;3.70;99.90
11963;DHT22;62678;52.130;5.584;2022-11-20T15:16:28;3.60;99.90
11963;DHT22;62678;52.130;5.584;2022-11-20T15:18:55;3.70;99.90
11963;DHT22;62678;52.130;5.584;2022-11-20T15:21:21;3.70;99.90
11963;DHT22;62678;52.130;5.584;2022-11-20T15:23:48;3.60;99.90
11963;DHT22;62678;52.130;5.584;2022-11-20T15:26:19;3.60;99.90
11963;DHT22;62678;52.130;5.584;2022-11-20T15:28:48;3.70;99.90
11963;DHT22;62678;52.130;5.584;2022-11-20T15:31:18;3.70;99.90
11963;DHT22;62678;52.130;5.584;2022-11-20T15:33:46;3.70;99.90
11963;DHT22;62678;52.130;5.584;2022-11-20T15:36:13;3.60;99.90
11963;DHT22;62678;52.130;5.584;2022-11-20T15:38:39;3.60;99.90
11963;DHT22;62678;52.130;5.584;2022-11-20T15:41:07;3.60;99.90
11963;DHT22;62678;52.130;5.584;2022-11-20T15:43:34;3.60;99.90
11963;DHT22;62678;52.130;5.584;2022-11-20T15:46:05;3.60;99.90
11963;DHT22;62678;52.130;5.584;2022-11-20T15:48:38;3.70;99.90
11963;DHT22;62678;52.130;5.584;2022-11-20T15:51:07;3.60;99.90
11963;DHT22;62678;52.130;5.584;2022-11-20T15:53:41;3.60;99.90
11963;DHT22;62678;52.130;5.584;2022-11-20T15:56:11;3.70;99.90